sensor_id;sensor_type;location;lat;lon;timestamp;P1;durP1;ratioP1;P2;durP2;ratioP2
72891;SDS011;61032;50.782;6.818;2023-04-29T00:00:14;7.13;;;4.72;;
72891;SDS011;61032;50.782;6.818;2023-04-29T00:01:17;9.02;;;5.85;;
72891;SDS011;61032;50.782;6.818;2023-04-29T00:02:18;10.52;;;5.50;;
72891;SDS011;61032;50.782;6.818;2023-04-29T00:03:21;13.52;;;6.57;;
72891;SDS011;61032;50.782;6.818;2023-04-29T00:04:22;10.10;;;5.93;;
72891;SDS011;61032;50.782;6.818;2023-04-29T00:05:22;11.48;;;6.38;;
72891;SDS011;61032;50.782;6.818;2023-04-29T00:06:22;11.68;;;6.80;;
72891;SDS011;61032;50.782;6.818;2023-04-29T00:07:23;11.45;;;6.50;;
72891;SDS011;61032;50.782;6.818;2023-04-29T00:08:23;9.98;;;6.47;;
72891;SDS011;61032;50.782;6.818;2023-04-29T00:09:24;12.88;;;6.60;;
72891;SDS011;61032;50.782;6.818;2023-04-29T00:10:24;12.27;;;6.25;;
72891;SDS011;61032;50.782;6.818;2023-04-29T00:11:25;10.57;;;5.90;;
72891;SDS011;61032;50.782;6.818;2023-04-29T00:12:25;10.32;;;6.03;;
72891;SDS011;61032;50.782;6.818;2023-04-29T00:13:25;11.35;;;5.88;;
72891;SDS011;61032;50.782;6.818;2023-04-29T00:14:26;11.80;;;6.65;;
72891;SDS011;61032;50.782;6.818;2023-04-29T00:15:26;11.80;;;5.88;;
72891;SDS011;61032;50.782;6.818;2023-04-29T00:16:28;11.27;;;6.30;;
72891;SDS011;61032;50.782;6.818;2023-04-29T00:17:28;11.27;;;6.07;;
72891;SDS011;61032;50.782;6.818;2023-04-29T00:18:28;12.15;;;6.68;;
72891;SDS011;61032;50.782;6.818;2023-04-29T00:19:29;13.05;;;6.60;;
72891;SDS011;61032;50.782;6.818;2023-04-29T00:20:29;12.98;;;6.43;;
72891;SDS011;61032;50.782;6.818;2023-04-29T00:21:29;11.20;;;6.15;;
72891;SDS011;61032;50.782;6.818;2023-04-29T00:22:30;10.32;;;5.93;;
72891;SDS011;61032;50.782;6.818;2023-04-29T00:23:33;10.77;;;6.15;;
72891;SDS011;61032;50.782;6.818;2023-04-29T00:24:33;12.32;;;7.18;;
72891;SDS011;61032;50.782;6.818;2023-04-29T00:25:34;11.98;;;6.07;;
72891;SDS011;61032;50.782;6.818;2023-04-29T00:26:35;10.73;;;6.05;;
72891;SDS011;61032;50.782;6.818;2023-04-29T00:27:35;13.02;;;6.13;;
72891;SDS011;61032;50.782;6.818;2023-04-29T00:28:35;13.68;;;6.88;;
72891;SDS011;61032;50.782;6.818;2023-04-29T00:29:36;12.18;;;6.88;;
72891;SDS011;61032;50.782;6.818;2023-04-29T00:30:36;14.75;;;7.45;;
72891;SDS011;61032;50.782;6.818;2023-04-29T00:31:36;13.50;;;6.47;;
72891;SDS011;61032;50.782;6.818;2023-04-29T00:32:37;14.82;;;7.80;;
72891;SDS011;61032;50.782;6.818;2023-04-29T00:33:37;10.77;;;6.07;;
72891;SDS011;61032;50.782;6.818;2023-04-29T00:35:39;13.48;;;6.80;;
72891;SDS011;61032;50.782;6.818;2023-04-29T00:36:40;12.25;;;7.05;;
72891;SDS011;61032;50.782;6.818;2023-04-29T00:37:40;10.85;;;6.75;;
72891;SDS011;61032;50.782;6.818;2023-04-29T00:38:41;13.98;;;7.63;;
72891;SDS011;61032;50.782;6.818;2023-04-29T00:39:41;14.52;;;7.10;;
72891;SDS011;61032;50.782;6.818;2023-04-29T00:40:41;14.98;;;7.00;;
72891;SDS011;61032;50.782;6.818;2023-04-29T00:41:42;13.65;;;7.35;;
72891;SDS011;61032;50.782;6.818;2023-04-29T00:42:43;13.40;;;7.03;;
72891;SDS011;61032;50.782;6.818;2023-04-29T00:43:43;13.07;;;7.18;;
72891;SDS011;61032;50.782;6.818;2023-04-29T00:44:43;15.98;;;7.85;;
72891;SDS011;61032;50.782;6.818;2023-04-29T00:45:44;13.70;;;6.90;;
72891;SDS011;61032;50.782;6.818;2023-04-29T00:46:45;14.32;;;7.32;;
72891;SDS011;61032;50.782;6.818;2023-04-29T00:47:46;14.57;;;7.28;;
72891;SDS011;61032;50.782;6.818;2023-04-29T00:48:46;12.93;;;7.47;;
72891;SDS011;61032;50.782;6.818;2023-04-29T00:49:46;13.98;;;7.10;;
72891;SDS011;61032;50.782;6.818;2023-04-29T00:50:47;13.90;;;8.00;;
72891;SDS011;61032;50.782;6.818;2023-04-29T00:51:47;15.85;;;8.10;;
72891;SDS011;61032;50.782;6.818;2023-04-29T00:52:49;15.35;;;8.05;;
72891;SDS011;61032;50.782;6.818;2023-04-29T00:53:50;15.57;;;8.02;;
72891;SDS011;61032;50.782;6.818;2023-04-29T00:54:51;13.75;;;7.47;;
72891;SDS011;61032;50.782;6.818;2023-04-29T00:55:51;15.20;;;7.88;;
72891;SDS011;61032;50.782;6.818;2023-04-29T00:56:52;16.10;;;7.68;;
72891;SDS011;61032;50.782;6.818;2023-04-29T00:57:58;15.85;;;8.32;;
72891;SDS011;61032;50.782;6.818;2023-04-29T00:58:58;14.30;;;8.00;;
72891;SDS011;61032;50.782;6.818;2023-04-29T00:59:58;15.35;;;7.90;;
72891;SDS011;61032;50.782;6.818;2023-04-29T01:00:59;15.07;;;8.38;;
72891;SDS011;61032;50.782;6.818;2023-04-29T01:02:00;14.88;;;7.90;;
72891;SDS011;61032;50.782;6.818;2023-04-29T01:03:03;18.10;;;8.23;;
72891;SDS011;61032;50.782;6.818;2023-04-29T01:04:04;16.55;;;8.65;;
72891;SDS011;61032;50.782;6.818;2023-04-29T01:05:05;14.00;;;8.05;;
72891;SDS011;61032;50.782;6.818;2023-04-29T01:06:15;14.57;;;8.27;;
72891;SDS011;61032;50.782;6.818;2023-04-29T01:11:13;15.30;;;6.78;;
72891;SDS011;61032;50.782;6.818;2023-04-29T01:13:50;14.43;;;7.55;;
72891;SDS011;61032;50.782;6.818;2023-04-29T01:15:11;13.85;;;6.75;;
72891;SDS011;61032;50.782;6.818;2023-04-29T01:16:29;13.73;;;7.35;;
72891;SDS011;61032;50.782;6.818;2023-04-29T01:20:32;12.93;;;6.18;;
72891;SDS011;61032;50.782;6.818;2023-04-29T01:21:44;13.27;;;6.45;;
72891;SDS011;61032;50.782;6.818;2023-04-29T01:22:50;12.23;;;6.18;;
72891;SDS011;61032;50.782;6.818;2023-04-29T01:23:50;11.77;;;7.30;;
72891;SDS011;61032;50.782;6.818;2023-04-29T01:24:57;12.15;;;6.10;;
72891;SDS011;61032;50.782;6.818;2023-04-29T01:25:57;9.82;;;5.50;;
72891;SDS011;61032;50.782;6.818;2023-04-29T01:27:01;11.95;;;6.30;;
72891;SDS011;61032;50.782;6.818;2023-04-29T01:31:31;11.68;;;5.40;;
72891;SDS011;61032;50.782;6.818;2023-04-29T01:32:42;8.05;;;4.80;;
72891;SDS011;61032;50.782;6.818;2023-04-29T01:35:12;9.85;;;5.20;;
72891;SDS011;61032;50.782;6.818;2023-04-29T01:37:04;8.48;;;4.90;;
72891;SDS011;61032;50.782;6.818;2023-04-29T01:37:40;9.73;;;4.85;;
72891;SDS011;61032;50.782;6.818;2023-04-29T01:40:16;8.77;;;4.82;;
72891;SDS011;61032;50.782;6.818;2023-04-29T01:42:33;8.45;;;4.95;;
72891;SDS011;61032;50.782;6.818;2023-04-29T01:43:38;10.00;;;5.03;;
72891;SDS011;61032;50.782;6.818;2023-04-29T01:44:39;8.60;;;5.05;;
72891;SDS011;61032;50.782;6.818;2023-04-29T01:47:03;9.50;;;5.78;;
72891;SDS011;61032;50.782;6.818;2023-04-29T01:48:05;10.90;;;5.70;;
72891;SDS011;61032;50.782;6.818;2023-04-29T01:49:06;11.90;;;5.88;;
72891;SDS011;61032;50.782;6.818;2023-04-29T01:50:06;14.07;;;6.85;;
72891;SDS011;61032;50.782;6.818;2023-04-29T01:51:07;15.13;;;7.75;;
72891;SDS011;61032;50.782;6.818;2023-04-29T01:52:07;14.23;;;7.03;;
72891;SDS011;61032;50.782;6.818;2023-04-29T01:53:07;14.40;;;7.47;;
72891;SDS011;61032;50.782;6.818;2023-04-29T01:54:08;16.20;;;7.75;;
72891;SDS011;61032;50.782;6.818;2023-04-29T01:55:09;17.38;;;8.10;;
72891;SDS011;61032;50.782;6.818;2023-04-29T01:56:10;16.90;;;8.77;;
72891;SDS011;61032;50.782;6.818;2023-04-29T01:57:10;17.15;;;8.10;;
72891;SDS011;61032;50.782;6.818;2023-04-29T01:58:10;18.02;;;8.07;;
72891;SDS011;61032;50.782;6.818;2023-04-29T01:59:10;19.40;;;9.13;;
72891;SDS011;61032;50.782;6.818;2023-04-29T02:00:11;16.83;;;8.80;;
72891;SDS011;61032;50.782;6.818;2023-04-29T02:01:11;17.67;;;8.60;;
72891;SDS011;61032;50.782;6.818;2023-04-29T02:02:12;18.48;;;8.63;;
72891;SDS011;61032;50.782;6.818;2023-04-29T02:03:20;19.67;;;9.18;;
72891;SDS011;61032;50.782;6.818;2023-04-29T02:04:27;15.57;;;7.82;;
72891;SDS011;61032;50.782;6.818;2023-04-29T02:05:28;17.63;;;9.15;;
72891;SDS011;61032;50.782;6.818;2023-04-29T02:06:31;19.15;;;9.32;;
72891;SDS011;61032;50.782;6.818;2023-04-29T02:07:32;19.70;;;9.77;;
72891;SDS011;61032;50.782;6.818;2023-04-29T02:08:32;20.90;;;9.93;;
72891;SDS011;61032;50.782;6.818;2023-04-29T02:09:33;18.20;;;9.52;;
72891;SDS011;61032;50.782;6.818;2023-04-29T02:10:33;20.50;;;10.10;;
72891;SDS011;61032;50.782;6.818;2023-04-29T02:11:34;22.52;;;10.57;;
72891;SDS011;61032;50.782;6.818;2023-04-29T02:12:34;20.15;;;9.07;;
72891;SDS011;61032;50.782;6.818;2023-04-29T02:13:34;19.60;;;9.48;;
72891;SDS011;61032;50.782;6.818;2023-04-29T02:14:34;18.42;;;9.20;;
72891;SDS011;61032;50.782;6.818;2023-04-29T02:15:35;21.10;;;9.88;;
72891;SDS011;61032;50.782;6.818;2023-04-29T02:16:35;19.63;;;9.52;;
72891;SDS011;61032;50.782;6.818;2023-04-29T02:17:35;21.35;;;9.95;;
72891;SDS011;61032;50.782;6.818;2023-04-29T02:18:36;19.85;;;9.43;;
72891;SDS011;61032;50.782;6.818;2023-04-29T02:19:36;20.88;;;9.93;;
72891;SDS011;61032;50.782;6.818;2023-04-29T02:20:36;19.75;;;9.38;;
72891;SDS011;61032;50.782;6.818;2023-04-29T02:21:37;23.63;;;9.82;;
72891;SDS011;61032;50.782;6.818;2023-04-29T02:22:39;21.58;;;9.88;;
72891;SDS011;61032;50.782;6.818;2023-04-29T02:23:39;20.05;;;9.95;;
72891;SDS011;61032;50.782;6.818;2023-04-29T02:24:39;22.33;;;9.90;;
72891;SDS011;61032;50.782;6.818;2023-04-29T02:25:39;22.33;;;10.82;;
72891;SDS011;61032;50.782;6.818;2023-04-29T02:26:40;22.88;;;11.00;;
72891;SDS011;61032;50.782;6.818;2023-04-29T02:27:40;21.33;;;10.77;;
72891;SDS011;61032;50.782;6.818;2023-04-29T02:28:40;24.13;;;10.98;;
72891;SDS011;61032;50.782;6.818;2023-04-29T02:29:41;20.92;;;10.10;;
72891;SDS011;61032;50.782;6.818;2023-04-29T02:30:41;20.67;;;10.88;;
72891;SDS011;61032;50.782;6.818;2023-04-29T02:31:42;24.13;;;10.02;;
72891;SDS011;61032;50.782;6.818;2023-04-29T02:32:42;21.17;;;10.27;;
72891;SDS011;61032;50.782;6.818;2023-04-29T02:33:42;21.50;;;11.02;;
72891;SDS011;61032;50.782;6.818;2023-04-29T02:34:43;21.50;;;11.10;;
72891;SDS011;61032;50.782;6.818;2023-04-29T02:35:44;22.45;;;11.45;;
72891;SDS011;61032;50.782;6.818;2023-04-29T02:36:44;21.90;;;10.40;;
72891;SDS011;61032;50.782;6.818;2023-04-29T02:37:45;22.27;;;10.63;;
72891;SDS011;61032;50.782;6.818;2023-04-29T02:38:45;22.50;;;11.45;;
72891;SDS011;61032;50.782;6.818;2023-04-29T02:39:46;24.95;;;11.35;;
72891;SDS011;61032;50.782;6.818;2023-04-29T02:40:46;21.70;;;11.75;;
72891;SDS011;61032;50.782;6.818;2023-04-29T02:41:46;24.95;;;11.05;;
72891;SDS011;61032;50.782;6.818;2023-04-29T02:42:47;21.77;;;11.55;;
72891;SDS011;61032;50.782;6.818;2023-04-29T02:43:47;22.23;;;10.30;;
72891;SDS011;61032;50.782;6.818;2023-04-29T02:44:51;19.98;;;10.35;;
72891;SDS011;61032;50.782;6.818;2023-04-29T02:45:51;22.35;;;11.02;;
72891;SDS011;61032;50.782;6.818;2023-04-29T02:46:51;22.15;;;11.60;;
72891;SDS011;61032;50.782;6.818;2023-04-29T02:47:52;25.30;;;11.68;;
72891;SDS011;61032;50.782;6.818;2023-04-29T02:48:52;24.23;;;12.20;;
72891;SDS011;61032;50.782;6.818;2023-04-29T02:49:52;23.17;;;11.82;;
72891;SDS011;61032;50.782;6.818;2023-04-29T02:50:53;22.42;;;11.10;;
72891;SDS011;61032;50.782;6.818;2023-04-29T02:51:53;21.48;;;11.15;;
72891;SDS011;61032;50.782;6.818;2023-04-29T02:52:53;22.77;;;11.25;;
72891;SDS011;61032;50.782;6.818;2023-04-29T02:53:54;23.48;;;12.52;;
72891;SDS011;61032;50.782;6.818;2023-04-29T02:54:54;22.35;;;10.90;;
72891;SDS011;61032;50.782;6.818;2023-04-29T02:55:55;24.95;;;12.13;;
72891;SDS011;61032;50.782;6.818;2023-04-29T02:56:56;25.65;;;11.68;;
72891;SDS011;61032;50.782;6.818;2023-04-29T02:57:57;24.15;;;11.70;;
72891;SDS011;61032;50.782;6.818;2023-04-29T02:58:58;22.27;;;11.70;;
72891;SDS011;61032;50.782;6.818;2023-04-29T02:59:59;25.38;;;12.07;;
72891;SDS011;61032;50.782;6.818;2023-04-29T03:00:59;22.80;;;11.50;;
72891;SDS011;61032;50.782;6.818;2023-04-29T03:02:00;21.25;;;10.65;;
72891;SDS011;61032;50.782;6.818;2023-04-29T03:03:01;23.05;;;11.50;;
72891;SDS011;61032;50.782;6.818;2023-04-29T03:04:01;25.30;;;11.40;;
72891;SDS011;61032;50.782;6.818;2023-04-29T03:05:02;25.58;;;12.10;;
72891;SDS011;61032;50.782;6.818;2023-04-29T03:06:03;22.73;;;11.65;;
72891;SDS011;61032;50.782;6.818;2023-04-29T03:07:03;22.77;;;12.15;;
72891;SDS011;61032;50.782;6.818;2023-04-29T03:08:04;23.30;;;11.80;;
72891;SDS011;61032;50.782;6.818;2023-04-29T03:09:04;23.88;;;12.57;;
72891;SDS011;61032;50.782;6.818;2023-04-29T03:10:05;26.65;;;12.63;;
72891;SDS011;61032;50.782;6.818;2023-04-29T03:11:05;26.30;;;12.93;;
72891;SDS011;61032;50.782;6.818;2023-04-29T03:12:06;23.67;;;12.57;;
72891;SDS011;61032;50.782;6.818;2023-04-29T03:13:06;23.42;;;12.05;;
72891;SDS011;61032;50.782;6.818;2023-04-29T03:14:06;24.52;;;11.90;;
72891;SDS011;61032;50.782;6.818;2023-04-29T03:15:07;23.25;;;12.55;;
72891;SDS011;61032;50.782;6.818;2023-04-29T03:16:09;25.20;;;12.13;;
72891;SDS011;61032;50.782;6.818;2023-04-29T03:17:09;24.90;;;12.75;;
72891;SDS011;61032;50.782;6.818;2023-04-29T03:18:10;24.58;;;12.43;;
72891;SDS011;61032;50.782;6.818;2023-04-29T03:19:10;26.25;;;12.52;;
72891;SDS011;61032;50.782;6.818;2023-04-29T03:20:11;26.13;;;12.02;;
72891;SDS011;61032;50.782;6.818;2023-04-29T03:21:11;30.23;;;14.02;;
72891;SDS011;61032;50.782;6.818;2023-04-29T03:22:11;24.75;;;12.90;;
72891;SDS011;61032;50.782;6.818;2023-04-29T03:23:12;23.95;;;12.40;;
72891;SDS011;61032;50.782;6.818;2023-04-29T03:24:12;25.42;;;12.95;;
72891;SDS011;61032;50.782;6.818;2023-04-29T03:25:12;25.85;;;11.90;;
72891;SDS011;61032;50.782;6.818;2023-04-29T03:26:13;24.25;;;12.93;;
72891;SDS011;61032;50.782;6.818;2023-04-29T03:27:13;26.08;;;13.75;;
72891;SDS011;61032;50.782;6.818;2023-04-29T03:28:13;25.65;;;13.00;;
72891;SDS011;61032;50.782;6.818;2023-04-29T03:29:14;25.92;;;13.75;;
72891;SDS011;61032;50.782;6.818;2023-04-29T03:30:14;26.10;;;12.98;;
72891;SDS011;61032;50.782;6.818;2023-04-29T03:31:14;29.58;;;14.15;;
72891;SDS011;61032;50.782;6.818;2023-04-29T03:32:15;27.65;;;13.35;;
72891;SDS011;61032;50.782;6.818;2023-04-29T03:33:16;26.27;;;14.13;;
72891;SDS011;61032;50.782;6.818;2023-04-29T03:34:16;26.10;;;12.27;;
72891;SDS011;61032;50.782;6.818;2023-04-29T03:35:16;27.00;;;13.88;;
72891;SDS011;61032;50.782;6.818;2023-04-29T03:36:17;25.52;;;12.98;;
72891;SDS011;61032;50.782;6.818;2023-04-29T03:37:17;26.38;;;13.65;;
72891;SDS011;61032;50.782;6.818;2023-04-29T03:38:17;27.17;;;13.90;;
72891;SDS011;61032;50.782;6.818;2023-04-29T03:39:18;22.02;;;12.52;;
72891;SDS011;61032;50.782;6.818;2023-04-29T03:40:18;26.50;;;12.10;;
72891;SDS011;61032;50.782;6.818;2023-04-29T03:41:18;27.10;;;12.82;;
72891;SDS011;61032;50.782;6.818;2023-04-29T03:42:19;28.67;;;13.82;;
72891;SDS011;61032;50.782;6.818;2023-04-29T03:43:19;29.25;;;13.90;;
72891;SDS011;61032;50.782;6.818;2023-04-29T03:44:20;29.25;;;14.65;;
72891;SDS011;61032;50.782;6.818;2023-04-29T03:45:20;25.98;;;12.70;;
72891;SDS011;61032;50.782;6.818;2023-04-29T03:46:20;30.95;;;14.20;;
72891;SDS011;61032;50.782;6.818;2023-04-29T03:47:21;27.63;;;13.75;;
72891;SDS011;61032;50.782;6.818;2023-04-29T03:48:21;32.55;;;14.50;;
72891;SDS011;61032;50.782;6.818;2023-04-29T03:49:21;28.38;;;14.55;;
72891;SDS011;61032;50.782;6.818;2023-04-29T03:50:22;34.83;;;16.25;;
72891;SDS011;61032;50.782;6.818;2023-04-29T03:51:23;33.90;;;16.45;;
72891;SDS011;61032;50.782;6.818;2023-04-29T03:52:24;33.78;;;16.08;;
72891;SDS011;61032;50.782;6.818;2023-04-29T03:53:24;31.88;;;16.67;;
72891;SDS011;61032;50.782;6.818;2023-04-29T03:54:25;34.03;;;16.05;;
72891;SDS011;61032;50.782;6.818;2023-04-29T03:55:25;33.42;;;16.65;;
72891;SDS011;61032;50.782;6.818;2023-04-29T03:56:26;34.78;;;15.73;;
72891;SDS011;61032;50.782;6.818;2023-04-29T03:57:26;33.78;;;16.33;;
72891;SDS011;61032;50.782;6.818;2023-04-29T03:58:26;35.47;;;16.27;;
72891;SDS011;61032;50.782;6.818;2023-04-29T03:59:27;36.45;;;18.23;;
72891;SDS011;61032;50.782;6.818;2023-04-29T04:00:27;38.10;;;17.63;;
72891;SDS011;61032;50.782;6.818;2023-04-29T04:01:30;40.55;;;18.27;;
72891;SDS011;61032;50.782;6.818;2023-04-29T04:02:30;44.13;;;18.90;;
72891;SDS011;61032;50.782;6.818;2023-04-29T04:03:37;44.78;;;19.35;;
72891;SDS011;61032;50.782;6.818;2023-04-29T04:04:37;44.70;;;19.98;;
72891;SDS011;61032;50.782;6.818;2023-04-29T04:05:39;45.03;;;19.75;;
72891;SDS011;61032;50.782;6.818;2023-04-29T04:06:39;48.95;;;20.88;;
72891;SDS011;61032;50.782;6.818;2023-04-29T04:07:40;45.30;;;20.55;;
72891;SDS011;61032;50.782;6.818;2023-04-29T04:08:40;46.50;;;20.63;;
72891;SDS011;61032;50.782;6.818;2023-04-29T04:09:40;47.28;;;20.45;;
72891;SDS011;61032;50.782;6.818;2023-04-29T04:10:41;49.20;;;21.63;;
72891;SDS011;61032;50.782;6.818;2023-04-29T04:11:41;45.00;;;19.23;;
72891;SDS011;61032;50.782;6.818;2023-04-29T04:12:41;51.45;;;21.98;;
72891;SDS011;61032;50.782;6.818;2023-04-29T04:13:42;51.13;;;21.45;;
72891;SDS011;61032;50.782;6.818;2023-04-29T04:14:42;52.80;;;21.35;;
72891;SDS011;61032;50.782;6.818;2023-04-29T04:15:48;59.17;;;22.27;;
72891;SDS011;61032;50.782;6.818;2023-04-29T04:16:49;53.60;;;22.10;;
72891;SDS011;61032;50.782;6.818;2023-04-29T04:17:49;50.08;;;23.10;;
72891;SDS011;61032;50.782;6.818;2023-04-29T04:18:50;50.88;;;21.60;;
72891;SDS011;61032;50.782;6.818;2023-04-29T04:19:50;54.03;;;20.20;;
72891;SDS011;61032;50.782;6.818;2023-04-29T04:20:51;55.55;;;23.17;;
72891;SDS011;61032;50.782;6.818;2023-04-29T04:21:51;51.38;;;21.15;;
72891;SDS011;61032;50.782;6.818;2023-04-29T04:22:51;43.55;;;21.40;;
72891;SDS011;61032;50.782;6.818;2023-04-29T04:23:53;49.83;;;21.00;;
72891;SDS011;61032;50.782;6.818;2023-04-29T04:24:54;50.42;;;21.00;;
72891;SDS011;61032;50.782;6.818;2023-04-29T04:25:54;46.13;;;20.48;;
72891;SDS011;61032;50.782;6.818;2023-04-29T04:26:55;49.75;;;21.60;;
72891;SDS011;61032;50.782;6.818;2023-04-29T04:27:55;49.35;;;20.80;;
72891;SDS011;61032;50.782;6.818;2023-04-29T04:28:55;55.63;;;21.42;;
72891;SDS011;61032;50.782;6.818;2023-04-29T04:29:55;48.72;;;21.00;;
72891;SDS011;61032;50.782;6.818;2023-04-29T04:30:56;52.50;;;22.50;;
72891;SDS011;61032;50.782;6.818;2023-04-29T04:31:57;51.83;;;23.10;;
72891;SDS011;61032;50.782;6.818;2023-04-29T04:32:57;51.90;;;20.92;;
72891;SDS011;61032;50.782;6.818;2023-04-29T04:33:58;53.95;;;21.00;;
72891;SDS011;61032;50.782;6.818;2023-04-29T04:34:58;50.20;;;21.75;;
72891;SDS011;61032;50.782;6.818;2023-04-29T04:35:59;53.92;;;20.98;;
72891;SDS011;61032;50.782;6.818;2023-04-29T04:36:59;48.17;;;19.83;;
72891;SDS011;61032;50.782;6.818;2023-04-29T04:37:59;52.90;;;21.58;;
72891;SDS011;61032;50.782;6.818;2023-04-29T04:39:00;52.80;;;20.67;;
72891;SDS011;61032;50.782;6.818;2023-04-29T04:40:00;50.15;;;20.58;;
72891;SDS011;61032;50.782;6.818;2023-04-29T04:41:01;53.13;;;22.80;;
72891;SDS011;61032;50.782;6.818;2023-04-29T04:42:01;53.03;;;21.75;;
72891;SDS011;61032;50.782;6.818;2023-04-29T04:43:02;47.78;;;19.88;;
72891;SDS011;61032;50.782;6.818;2023-04-29T04:44:03;49.67;;;21.02;;
72891;SDS011;61032;50.782;6.818;2023-04-29T04:45:03;51.30;;;21.75;;
72891;SDS011;61032;50.782;6.818;2023-04-29T04:46:11;52.92;;;21.08;;
72891;SDS011;61032;50.782;6.818;2023-04-29T04:47:13;54.20;;;21.30;;
72891;SDS011;61032;50.782;6.818;2023-04-29T04:48:13;48.80;;;20.67;;
72891;SDS011;61032;50.782;6.818;2023-04-29T04:49:14;50.63;;;21.60;;
72891;SDS011;61032;50.782;6.818;2023-04-29T04:50:17;51.03;;;18.98;;
72891;SDS011;61032;50.782;6.818;2023-04-29T04:51:21;42.90;;;18.13;;
72891;SDS011;61032;50.782;6.818;2023-04-29T04:52:22;41.25;;;17.65;;
72891;SDS011;61032;50.782;6.818;2023-04-29T04:53:22;43.28;;;16.48;;
72891;SDS011;61032;50.782;6.818;2023-04-29T04:54:22;44.28;;;18.40;;
72891;SDS011;61032;50.782;6.818;2023-04-29T04:55:23;37.88;;;14.80;;
72891;SDS011;61032;50.782;6.818;2023-04-29T04:56:23;38.42;;;14.55;;
72891;SDS011;61032;50.782;6.818;2023-04-29T04:57:23;32.00;;;14.02;;
72891;SDS011;61032;50.782;6.818;2023-04-29T04:58:24;31.73;;;13.25;;
72891;SDS011;61032;50.782;6.818;2023-04-29T04:59:25;29.48;;;11.95;;
72891;SDS011;61032;50.782;6.818;2023-04-29T05:00:26;29.67;;;12.82;;
72891;SDS011;61032;50.782;6.818;2023-04-29T05:01:26;33.03;;;13.68;;
72891;SDS011;61032;50.782;6.818;2023-04-29T05:02:26;34.35;;;13.52;;
72891;SDS011;61032;50.782;6.818;2023-04-29T05:03:27;31.40;;;11.93;;
72891;SDS011;61032;50.782;6.818;2023-04-29T05:04:27;27.48;;;12.20;;
72891;SDS011;61032;50.782;6.818;2023-04-29T05:05:27;30.77;;;12.63;;
72891;SDS011;61032;50.782;6.818;2023-04-29T05:06:28;35.58;;;14.52;;
72891;SDS011;61032;50.782;6.818;2023-04-29T05:07:28;31.60;;;13.98;;
72891;SDS011;61032;50.782;6.818;2023-04-29T05:08:29;32.28;;;12.23;;
72891;SDS011;61032;50.782;6.818;2023-04-29T05:09:29;29.58;;;13.07;;
72891;SDS011;61032;50.782;6.818;2023-04-29T05:10:29;28.38;;;12.40;;
72891;SDS011;61032;50.782;6.818;2023-04-29T05:11:30;29.42;;;13.23;;
72891;SDS011;61032;50.782;6.818;2023-04-29T05:12:30;30.20;;;13.60;;
72891;SDS011;61032;50.782;6.818;2023-04-29T05:13:31;25.67;;;11.00;;
72891;SDS011;61032;50.782;6.818;2023-04-29T05:14:32;35.35;;;14.10;;
72891;SDS011;61032;50.782;6.818;2023-04-29T05:15:33;34.95;;;14.15;;
72891;SDS011;61032;50.782;6.818;2023-04-29T05:16:34;35.90;;;14.40;;
72891;SDS011;61032;50.782;6.818;2023-04-29T05:17:34;32.85;;;13.05;;
72891;SDS011;61032;50.782;6.818;2023-04-29T05:18:35;29.95;;;13.40;;
72891;SDS011;61032;50.782;6.818;2023-04-29T05:19:35;33.67;;;13.23;;
72891;SDS011;61032;50.782;6.818;2023-04-29T05:20:35;28.02;;;12.27;;
72891;SDS011;61032;50.782;6.818;2023-04-29T05:21:36;29.02;;;12.60;;
72891;SDS011;61032;50.782;6.818;2023-04-29T05:22:37;31.50;;;12.75;;
72891;SDS011;61032;50.782;6.818;2023-04-29T05:23:37;31.95;;;14.82;;
72891;SDS011;61032;50.782;6.818;2023-04-29T05:24:37;30.92;;;13.55;;
72891;SDS011;61032;50.782;6.818;2023-04-29T05:25:38;33.90;;;13.43;;
72891;SDS011;61032;50.782;6.818;2023-04-29T05:26:38;40.30;;;15.13;;
72891;SDS011;61032;50.782;6.818;2023-04-29T05:27:38;28.95;;;12.65;;
72891;SDS011;61032;50.782;6.818;2023-04-29T05:28:39;27.60;;;12.68;;
72891;SDS011;61032;50.782;6.818;2023-04-29T05:29:39;29.38;;;12.73;;
72891;SDS011;61032;50.782;6.818;2023-04-29T05:30:40;29.83;;;12.77;;
72891;SDS011;61032;50.782;6.818;2023-04-29T05:31:40;33.15;;;13.93;;
72891;SDS011;61032;50.782;6.818;2023-04-29T05:32:41;27.85;;;13.07;;
72891;SDS011;61032;50.782;6.818;2023-04-29T05:33:41;32.50;;;14.98;;
72891;SDS011;61032;50.782;6.818;2023-04-29T05:34:42;30.92;;;14.13;;
72891;SDS011;61032;50.782;6.818;2023-04-29T05:35:43;35.25;;;14.05;;
72891;SDS011;61032;50.782;6.818;2023-04-29T05:36:43;37.92;;;15.40;;
72891;SDS011;61032;50.782;6.818;2023-04-29T05:37:44;35.80;;;15.50;;
72891;SDS011;61032;50.782;6.818;2023-04-29T05:38:44;41.95;;;16.65;;
72891;SDS011;61032;50.782;6.818;2023-04-29T05:39:45;44.90;;;19.27;;
72891;SDS011;61032;50.782;6.818;2023-04-29T05:40:45;41.33;;;18.58;;
72891;SDS011;61032;50.782;6.818;2023-04-29T05:41:45;41.38;;;18.45;;
72891;SDS011;61032;50.782;6.818;2023-04-29T05:42:45;33.83;;;15.68;;
72891;SDS011;61032;50.782;6.818;2023-04-29T05:43:46;31.65;;;14.05;;
72891;SDS011;61032;50.782;6.818;2023-04-29T05:44:46;28.50;;;12.68;;
72891;SDS011;61032;50.782;6.818;2023-04-29T05:45:46;27.77;;;12.25;;
72891;SDS011;61032;50.782;6.818;2023-04-29T05:46:47;25.23;;;13.20;;
72891;SDS011;61032;50.782;6.818;2023-04-29T05:47:47;23.35;;;12.10;;
72891;SDS011;61032;50.782;6.818;2023-04-29T05:48:48;26.77;;;14.68;;
72891;SDS011;61032;50.782;6.818;2023-04-29T05:49:48;28.88;;;13.63;;
72891;SDS011;61032;50.782;6.818;2023-04-29T05:50:48;26.38;;;13.25;;
72891;SDS011;61032;50.782;6.818;2023-04-29T05:51:49;28.23;;;12.38;;
72891;SDS011;61032;50.782;6.818;2023-04-29T05:52:49;24.83;;;12.70;;
72891;SDS011;61032;50.782;6.818;2023-04-29T05:53:50;26.75;;;11.85;;
72891;SDS011;61032;50.782;6.818;2023-04-29T05:54:51;23.75;;;10.75;;
72891;SDS011;61032;50.782;6.818;2023-04-29T05:55:51;27.45;;;11.80;;
72891;SDS011;61032;50.782;6.818;2023-04-29T05:56:51;23.98;;;11.25;;
72891;SDS011;61032;50.782;6.818;2023-04-29T05:57:51;24.60;;;10.98;;
72891;SDS011;61032;50.782;6.818;2023-04-29T05:58:52;20.45;;;9.43;;
72891;SDS011;61032;50.782;6.818;2023-04-29T05:59:52;22.90;;;11.02;;
72891;SDS011;61032;50.782;6.818;2023-04-29T06:00:54;20.35;;;9.57;;
72891;SDS011;61032;50.782;6.818;2023-04-29T06:01:54;22.88;;;10.63;;
72891;SDS011;61032;50.782;6.818;2023-04-29T06:02:55;18.10;;;9.07;;
72891;SDS011;61032;50.782;6.818;2023-04-29T06:03:56;25.02;;;11.15;;
72891;SDS011;61032;50.782;6.818;2023-04-29T06:04:56;23.38;;;10.50;;
72891;SDS011;61032;50.782;6.818;2023-04-29T06:05:56;22.75;;;11.13;;
72891;SDS011;61032;50.782;6.818;2023-04-29T06:06:57;22.73;;;10.70;;
72891;SDS011;61032;50.782;6.818;2023-04-29T06:07:57;24.08;;;11.05;;
72891;SDS011;61032;50.782;6.818;2023-04-29T06:08:58;21.42;;;10.43;;
72891;SDS011;61032;50.782;6.818;2023-04-29T06:09:59;22.23;;;10.07;;
72891;SDS011;61032;50.782;6.818;2023-04-29T06:10:59;18.73;;;10.07;;
72891;SDS011;61032;50.782;6.818;2023-04-29T06:12:02;20.98;;;10.15;;
72891;SDS011;61032;50.782;6.818;2023-04-29T06:13:02;21.77;;;9.82;;
72891;SDS011;61032;50.782;6.818;2023-04-29T06:14:03;21.48;;;10.43;;
72891;SDS011;61032;50.782;6.818;2023-04-29T06:15:03;19.85;;;9.50;;
72891;SDS011;61032;50.782;6.818;2023-04-29T06:16:04;24.95;;;11.65;;
72891;SDS011;61032;50.782;6.818;2023-04-29T06:17:04;16.67;;;8.95;;